Time;durP1;ratioP1;P1;durP2;ratioP2;P2;SDS_P1;SDS_P2;PMS_P1;PMS_P2;Temp;Humidity;BMP_temperature;BMP_pressure;BME280_temperature;BME280_humidity;BME280_pressure;Samples;Min_cycle;Max_cycle;Signal;HPM_P1;HPM_P2
2021/07/16 09:47:20;;;;;;;13.00;11.90;;;29.80;96.60;;;;;;5052469;28;20482;-61
2021/07/16 09:49:49;;;;;;;12.27;11.27;;;29.80;96.30;;;;;;5052374;28;21255;-61
2021/07/16 09:52:17;;;;;;;12.20;11.20;;;29.80;96.30;;;;;;5052387;28;20479;-62
2021/07/16 09:55:10;;;;;;;12.87;11.77;;;29.80;96.40;;;;;;5052300;28;20808;-62
2021/07/16 09:57:39;;;;;;;12.00;10.90;;;29.80;96.70;;;;;;5052156;28;20479;-62
2021/07/16 10:00:15;;;;;;;11.80;10.80;;;29.80;96.60;;;;;;5052716;28;20550;-62
2021/07/16 10:02:44;;;;;;;12.83;11.83;;;29.80;96.50;;;;;;5052027;28;20547;-62
2021/07/16 10:05:12;;;;;;;10.73;9.90;;;29.90;96.20;;;;;;5052595;28;20479;-62
2021/07/16 10:07:39;;;;;;;11.57;10.53;;;29.80;95.90;;;;;;5052079;28;20495;-62
2021/07/16 10:10:07;;;;;;;10.37;9.30;;;29.80;95.80;;;;;;5052618;28;20532;-62
2021/07/16 10:12:36;;;;;;;9.93;9.13;;;29.80;95.60;;;;;;5070783;28;20466;-62
2021/07/16 10:15:03;;;;;;;11.53;10.50;;;29.80;95.80;;;;;;5072693;28;20663;-62
2021/07/16 10:17:30;;;;;;;10.37;9.30;;;29.90;95.70;;;;;;5071951;28;20466;-61
2021/07/16 10:19:57;;;;;;;10.50;9.70;;;29.90;95.80;;;;;;5072275;28;20519;-62
2021/07/16 10:22:25;;;;;;;11.40;10.30;;;29.90;95.80;;;;;;5072131;28;20908;-60
2021/07/16 10:24:52;;;;;;;10.63;9.73;;;29.90;95.80;;;;;;5072493;28;21081;-62
2021/07/16 10:27:19;;;;;;;11.50;10.60;;;30.00;95.70;;;;;;5072407;28;20492;-62
2021/07/16 10:29:48;;;;;;;11.60;10.60;;;29.90;95.70;;;;;;5071916;28;20492;-62
2021/07/16 10:32:42;;;;;;;11.00;10.13;;;30.00;95.70;;;;;;5072185;28;20553;-62
2021/07/16 10:35:17;;;;;;;11.83;10.80;;;30.00;95.70;;;;;;5052272;28;20526;-61
2021/07/16 10:37:45;;;;;;;13.73;12.63;;;30.10;95.70;;;;;;5055883;28;20470;-61
2021/07/16 10:40:37;;;;;;;11.83;10.87;;;30.10;95.60;;;;;;5055741;28;20529;-61
2021/07/16 10:43:04;;;;;;;11.40;10.23;;;30.20;95.30;;;;;;5055899;28;20459;-61
2021/07/16 10:45:34;;;;;;;15.63;13.93;;;30.30;95.10;;;;;;5055479;28;20463;-60
2021/07/16 10:48:13;;;;;;;10.53;9.53;;;30.30;94.90;;;;;;5055866;28;20486;-61
2021/07/16 10:50:42;;;;;;;9.47;8.77;;;30.30;94.50;;;;;;5055688;28;20451;-61
2021/07/16 10:53:14;;;;;;;10.00;9.20;;;30.30;94.40;;;;;;5055654;28;21030;-62
2021/07/16 10:56:07;;;;;;;8.47;7.77;;;30.30;94.50;;;;;;5055599;28;20467;-61
2021/07/16 10:58:44;;;;;;;9.50;8.70;;;30.30;94.20;;;;;;5041130;28;20549;-61
2021/07/16 11:01:14;;;;;;;9.70;8.80;;;30.40;93.90;;;;;;5055673;28;20490;-61
2021/07/16 11:03:45;;;;;;;9.10;8.20;;;30.40;93.80;;;;;;5055217;28;20853;-61
2021/07/16 11:06:13;;;;;;;9.37;8.40;;;30.40;93.80;;;;;;5055558;28;20471;-61
2021/07/16 11:08:57;;;;;;;9.23;8.33;;;30.40;93.70;;;;;;5055081;28;20543;-61
2021/07/16 11:11:40;;;;;;;9.80;8.83;;;30.40;93.80;;;;;;5064269;28;20541;-61
2021/07/16 11:14:20;;;;;;;9.20;8.50;;;30.40;93.70;;;;;;5075297;28;20473;-61
2021/07/16 11:16:48;;;;;;;8.40;7.80;;;30.50;93.40;;;;;;5075144;28;20462;-61
2021/07/16 11:19:22;;;;;;;8.17;7.47;;;30.50;92.80;;;;;;5063013;28;20595;-61
2021/07/16 11:22:03;;;;;;;8.27;7.67;;;30.50;92.70;;;;;;5055050;28;20530;-61
2021/07/16 11:24:34;;;;;;;8.43;7.63;;;30.50;92.20;;;;;;5055015;28;20504;-61
2021/07/16 11:27:06;;;;;;;9.17;8.27;;;30.60;91.70;;;;;;5055010;28;20459;-61
2021/07/16 11:29:35;;;;;;;8.90;7.17;;;30.60;92.00;;;;;;5054686;28;20486;-61
2021/07/16 11:32:10;;;;;;;7.60;7.10;;;30.60;91.80;;;;;;5055262;28;20546;-60
2021/07/16 11:34:38;;;;;;;9.10;7.50;;;30.60;92.00;;;;;;5072797;28;20948;-60
2021/07/16 11:37:06;;;;;;;8.43;7.63;;;30.70;92.10;;;;;;5074882;28;20960;-60
2021/07/16 11:39:36;;;;;;;11.00;9.87;;;30.60;92.10;;;;;;5074462;28;21090;-61
2021/07/16 11:42:05;;;;;;;9.77;8.90;;;30.60;92.00;;;;;;5075084;28;20535;-61
2021/07/16 11:44:34;;;;;;;8.07;7.37;;;30.60;91.90;;;;;;5074386;28;20524;-61
2021/07/16 11:47:15;;;;;;;6.87;6.27;;;30.70;92.10;;;;;;5074672;28;20508;-61
2021/07/16 11:49:45;;;;;;;8.10;7.50;;;30.70;91.60;;;;;;5074424;28;20535;-61
2021/07/16 11:52:17;;;;;;;8.60;7.40;;;30.70;91.40;;;;;;5074864;28;20545;-61
2021/07/16 11:54:44;;;;;;;8.13;7.53;;;30.70;91.70;;;;;;5074266;28;20546;-61
2021/07/16 11:57:14;;;;;;;9.90;6.30;;;30.70;91.50;;;;;;5074487;28;20951;-61
2021/07/16 11:59:47;;;;;;;8.13;7.37;;;30.70;91.70;;;;;;5074348;28;20528;-61
2021/07/16 12:02:17;;;;;;;8.50;7.97;;;30.60;91.70;;;;;;5074612;28;20470;-61
2021/07/16 12:04:45;;;;;;;7.20;6.60;;;30.60;91.80;;;;;;5074134;28;20545;-61
2021/07/16 12:07:13;;;;;;;8.00;7.20;;;30.60;91.60;;;;;;5074680;28;20847;-61
2021/07/16 12:09:44;;;;;;;7.17;6.67;;;30.60;91.40;;;;;;5074169;28;20489;-61
2021/07/16 12:12:12;;;;;;;7.60;7.03;;;30.50;91.40;;;;;;5074358;28;20462;-61
2021/07/16 12:14:54;;;;;;;8.33;7.37;;;30.60;91.40;;;;;;5074070;28;20466;-61
2021/07/16 12:17:24;;;;;;;7.90;7.10;;;30.60;91.40;;;;;;5074210;28;20528;-61
2021/07/16 12:19:53;;;;;;;6.53;6.03;;;30.60;90.80;;;;;;5073850;28;20507;-61
2021/07/16 12:22:22;;;;;;;8.00;7.30;;;30.60;90.60;;;;;;5074149;28;20459;-61
2021/07/16 12:24:50;;;;;;;10.10;6.70;;;30.70;90.70;;;;;;5073933;28;20470;-61
2021/07/16 12:27:17;;;;;;;8.40;7.53;;;30.70;88.70;;;;;;5074040;28;20470;-61
2021/07/16 12:29:45;;;;;;;6.70;6.30;;;30.70;88.90;;;;;;5073614;28;20545;-61
2021/07/16 12:32:12;;;;;;;6.13;5.63;;;30.70;89.20;;;;;;5074125;28;20485;-61
2021/07/16 12:34:47;;;;;;;7.23;6.73;;;30.80;89.70;;;;;;5073646;28;20788;-61
2021/07/16 12:37:16;;;;;;;7.07;6.37;;;30.80;89.30;;;;;;5073783;28;20462;-61
2021/07/16 12:39:45;;;;;;;7.37;6.67;;;30.80;90.00;;;;;;5073493;28;20466;-61
2021/07/16 12:42:14;;;;;;;8.63;7.57;;;30.80;90.10;;;;;;5073932;28;20458;-61
2021/07/16 12:45:02;;;;;;;8.80;6.90;;;30.80;90.20;;;;;;5073228;28;20466;-61
2021/07/16 12:47:29;;;;;;;6.90;6.30;;;30.90;90.00;;;;;;5073604;28;20804;-61
2021/07/16 12:50:11;;;;;;;7.90;7.30;;;31.00;89.20;;;;;;5073579;28;20454;-62
2021/07/16 12:52:38;;;;;;;8.27;7.43;;;30.90;89.50;;;;;;5073177;28;20470;-61
2021/07/16 12:55:14;;;;;;;7.47;6.80;;;30.90;89.80;;;;;;5072809;28;20466;-61
2021/07/16 12:57:41;;;;;;;8.37;7.77;;;30.90;89.60;;;;;;5053193;28;20504;-60
2021/07/16 13:00:18;;;;;;;7.53;7.03;;;30.90;90.00;;;;;;5053094;28;20798;-61
2021/07/16 13:02:47;;;;;;;7.40;6.80;;;30.90;90.40;;;;;;5052962;28;20556;-62
2021/07/16 13:05:27;;;;;;;7.90;7.10;;;30.90;90.30;;;;;;5053526;28;20846;-62
2021/07/16 13:08:19;;;;;;;8.80;7.90;;;30.90;90.20;;;;;;5052735;28;20650;-62
2021/07/16 13:10:55;;;;;;;8.17;7.47;;;30.90;90.10;;;;;;5057096;28;20494;-62
2021/07/16 13:13:26;;;;;;;8.90;8.20;;;30.90;90.00;;;;;;5073216;28;20474;-62
2021/07/16 13:16:24;;;;;;;8.57;7.83;;;30.90;89.70;;;;;;5072460;28;20545;-61
2021/07/16 13:18:55;;;;;;;7.93;7.33;;;30.90;90.00;;;;;;5011272;28;20481;-62
2021/07/16 13:21:23;;;;;;;7.70;7.10;;;30.90;90.00;;;;;;5060734;28;20854;-62
2021/07/16 13:23:51;;;;;;;8.00;7.40;;;30.90;89.70;;;;;;5072640;28;20470;-62
2021/07/16 13:26:18;;;;;;;8.47;7.23;;;30.90;90.00;;;;;;5072951;28;20462;-62
2021/07/16 13:28:46;;;;;;;8.07;7.37;;;30.90;88.50;;;;;;5072682;28;20474;-62
2021/07/16 13:31:14;;;;;;;8.90;8.13;;;30.90;89.00;;;;;;5072985;28;20470;-62
2021/07/16 13:33:41;;;;;;;8.07;7.37;;;30.90;88.70;;;;;;5072215;28;20520;-60
2021/07/16 13:36:08;;;;;;;9.00;7.77;;;30.90;89.70;;;;;;5072965;28;20860;-60
2021/07/16 13:38:36;;;;;;;8.13;7.33;;;30.80;89.80;;;;;;5072413;28;20470;-60
2021/07/16 13:41:05;;;;;;;10.90;9.47;;;30.80;90.20;;;;;;5072750;28;20462;-60
2021/07/16 13:43:33;;;;;;;11.70;10.80;;;30.90;92.60;;;;;;5072619;28;20547;-60
2021/07/16 13:46:00;;;;;;;12.07;11.03;;;30.80;93.60;;;;;;5072601;28;20474;-61
2021/07/16 13:48:27;;;;;;;13.50;12.30;;;30.70;94.00;;;;;;5072779;28;20470;-61
2021/07/16 13:50:55;;;;;;;11.70;10.50;;;30.70;94.20;;;;;;5072231;28;20462;-61
2021/07/16 13:53:22;;;;;;;12.50;11.40;;;30.60;94.50;;;;;;5072550;28;20474;-61
2021/07/16 13:55:50;;;;;;;12.07;11.17;;;30.60;94.90;;;;;;5072195;28;20541;-61
2021/07/16 13:58:17;;;;;;;13.30;11.83;;;30.50;95.10;;;;;;5072566;28;20474;-61
2021/07/16 14:00:44;;;;;;;13.07;11.80;;;30.50;95.40;;;;;;5072349;28;20520;-61
2021/07/16 14:03:11;;;;;;;13.67;11.93;;;30.50;95.30;;;;;;5072583;28;20866;-61
2021/07/16 14:05:38;;;;;;;12.13;11.10;;;30.40;95.80;;;;;;5072199;28;20470;-61
2021/07/16 14:08:05;;;;;;;12.33;11.30;;;30.40;95.80;;;;;;5072450;28;20470;-61
2021/07/16 14:10:32;;;;;;;11.17;10.17;;;30.40;95.50;;;;;;5072900;28;20948;-62
2021/07/16 14:13:00;;;;;;;12.33;11.33;;;30.40;95.80;;;;;;5076581;28;20516;-62
2021/07/16 14:15:27;;;;;;;12.57;11.27;;;30.30;96.00;;;;;;5076541;28;20968;-62
2021/07/16 14:17:54;;;;;;;13.30;11.97;;;30.20;96.00;;;;;;5076168;28;20474;-62
2021/07/16 14:20:22;;;;;;;14.53;12.80;;;30.10;96.20;;;;;;5076520;28;20535;-62
2021/07/16 14:22:49;;;;;;;13.33;12.23;;;30.00;96.50;;;;;;5075916;28;20523;-62
2021/07/16 14:25:16;;;;;;;14.43;13.23;;;30.00;97.00;;;;;;5076401;28;20474;-62
2021/07/16 14:27:44;;;;;;;15.50;13.90;;;29.90;97.40;;;;;;5076053;28;20470;-62
2021/07/16 14:30:15;;;;;;;14.83;13.60;;;29.80;98.10;;;;;;5076317;28;20462;-62
2021/07/16 14:32:42;;;;;;;13.57;12.50;;;29.80;98.50;;;;;;5075857;28;20534;-62
2021/07/16 14:35:11;;;;;;;12.83;11.73;;;29.70;98.60;;;;;;5076421;28;20848;-62
2021/07/16 14:37:38;;;;;;;13.23;11.83;;;29.60;98.80;;;;;;5075939;28;20470;-62
2021/07/16 14:40:07;;;;;;;13.47;12.30;;;29.60;98.90;;;;;;5075801;28;20462;-62
2021/07/16 14:42:34;;;;;;;12.90;11.70;;;29.40;99.10;;;;;;5076087;28;20553;-61
2021/07/16 14:45:01;;;;;;;12.63;11.63;;;29.40;99.70;;;;;;5075531;28;20812;-62
2021/07/16 14:47:32;;;;;;;14.87;13.57;;;29.20;99.90;;;;;;5075882;28;20535;-61
2021/07/16 14:49:59;;;;;;;16.70;15.20;;;29.10;99.90;;;;;;5075729;28;20466;-62
2021/07/16 14:52:27;;;;;;;17.10;15.53;;;29.00;99.90;;;;;;5075712;28;20474;-62
2021/07/16 14:54:54;;;;;;;16.93;15.23;;;28.90;99.90;;;;;;5075354;28;20470;-62
2021/07/16 14:57:21;;;;;;;18.87;17.13;;;28.70;99.90;;;;;;5075876;28;20852;-63
2021/07/16 14:59:48;;;;;;;19.10;17.30;;;28.50;99.90;;;;;;5075315;28;20532;-63
2021/07/16 15:02:15;;;;;;;21.30;19.10;;;28.20;99.90;;;;;;5075750;28;20534;-63
2021/07/16 15:04:43;;;;;;;18.73;16.73;;;28.00;99.90;;;;;;5075493;28;20858;-62
2021/07/16 15:07:10;;;;;;;18.67;16.87;;;27.80;99.90;;;;;;5075541;28;20470;-63
2021/07/16 15:09:37;;;;;;;16.00;14.43;;;27.60;99.90;;;;;;5075598;28;20470;-64
2021/07/16 15:12:05;;;;;;;16.90;15.20;;;27.40;99.90;;;;;;5075156;28;20470;-62
2021/07/16 15:14:32;;;;;;;16.83;15.33;;;27.30;99.90;;;;;;5075407;28;20483;-62
2021/07/16 15:16:59;;;;;;;17.60;16.10;;;27.10;99.90;;;;;;5075101;28;20466;-62
2021/07/16 15:19:27;;;;;;;17.40;15.77;;;27.00;99.90;;;;;;5075364;28;20470;-62
2021/07/16 15:21:55;;;;;;;18.63;17.00;;;27.00;99.90;;;;;;5074427;28;20550;-62
2021/07/16 15:24:23;;;;;;;21.37;19.27;;;26.90;99.90;;;;;;5075470;28;20797;-62
2021/07/16 15:26:50;;;;;;;20.53;18.43;;;26.80;99.90;;;;;;5074958;28;20777;-62
2021/07/16 15:29:19;;;;;;;18.93;17.23;;;26.80;99.90;;;;;;5075229;28;20523;-62
2021/07/16 15:31:46;;;;;;;20.77;18.93;;;26.80;99.90;;;;;;5074839;28;20462;-62
2021/07/16 15:34:13;;;;;;;20.00;18.30;;;26.80;99.90;;;;;;5074702;28;20469;-63
2021/07/16 15:36:40;;;;;;;18.20;16.60;;;26.80;99.90;;;;;;5075181;28;20474;-63
2021/07/16 15:39:09;;;;;;;22.00;19.97;;;26.80;99.90;;;;;;5074340;28;20539;-63
2021/07/16 15:41:36;;;;;;;17.93;16.30;;;26.80;99.90;;;;;;5075061;28;20527;-63
2021/07/16 15:44:03;;;;;;;18.60;16.83;;;26.90;99.90;;;;;;5074531;28;20462;-63
2021/07/16 15:46:30;;;;;;;17.87;16.10;;;26.90;99.90;;;;;;5074890;28;20944;-62
2021/07/16 15:48:57;;;;;;;17.97;16.40;;;26.90;99.90;;;;;;5074683;28;20524;-62
2021/07/16 15:51:24;;;;;;;18.10;16.50;;;27.00;99.90;;;;;;5074860;28;20956;-62
2021/07/16 15:53:51;;;;;;;18.00;16.30;;;27.00;99.90;;;;;;5074166;28;20549;-62
2021/07/16 15:56:19;;;;;;;17.63;16.33;;;27.10;99.90;;;;;;5074832;28;20543;-62
2021/07/16 15:58:46;;;;;;;18.73;17.20;;;27.10;99.90;;;;;;5074182;28;20470;-61
2021/07/16 16:01:14;;;;;;;20.00;18.07;;;27.10;99.90;;;;;;5074746;28;20515;-62
2021/07/16 16:03:41;;;;;;;17.80;16.37;;;27.10;99.90;;;;;;5074500;28;20528;-62
2021/07/16 16:06:08;;;;;;;17.47;16.07;;;27.10;99.90;;;;;;5074023;28;20466;-62
2021/07/16 16:08:36;;;;;;;22.83;20.80;;;27.10;99.90;;;;;;5074551;28;20960;-62
2021/07/16 16:11:03;;;;;;;20.00;18.40;;;27.10;99.90;;;;;;5073726;28;20462;-62
2021/07/16 16:13:31;;;;;;;21.37;19.67;;;27.10;99.90;;;;;;5074229;28;20513;-62
2021/07/16 16:15:59;;;;;;;21.00;19.30;;;27.10;99.90;;;;;;5074051;28;20466;-62
2021/07/16 16:18:27;;;;;;;18.33;16.87;;;27.10;99.90;;;;;;5074348;28;20531;-62
2021/07/16 16:20:54;;;;;;;18.10;16.60;;;27.10;99.90;;;;;;5073787;28;20477;-62
2021/07/16 16:23:21;;;;;;;18.40;16.87;;;27.20;99.90;;;;;;5074024;28;20498;-62
2021/07/16 16:25:48;;;;;;;18.30;16.80;;;27.20;99.90;;;;;;5073523;28;20984;-62
2021/07/16 16:28:15;;;;;;;21.07;19.07;;;27.20;99.90;;;;;;5073676;28;20467;-62
2021/07/16 16:30:44;;;;;;;21.33;19.53;;;27.20;99.90;;;;;;5074052;28;20467;-62
2021/07/16 16:33:11;;;;;;;21.77;20.07;;;27.20;99.90;;;;;;5072385;28;20834;-62
2021/07/16 16:35:38;;;;;;;18.07;16.63;;;27.20;99.90;;;;;;5073877;28;20500;-62
2021/07/16 16:38:05;;;;;;;17.53;15.93;;;27.20;99.90;;;;;;5070651;28;20539;-62
2021/07/16 16:40:32;;;;;;;16.17;14.77;;;27.20;99.90;;;;;;5054696;28;20540;-62
2021/07/16 16:42:58;;;;;;;17.83;16.43;;;27.20;99.90;;;;;;5073231;28;20466;-62
2021/07/16 16:45:26;;;;;;;15.63;14.27;;;27.20;99.90;;;;;;5073499;28;20466;-62
2021/07/16 16:47:54;;;;;;;17.70;16.30;;;27.20;99.90;;;;;;5072207;28;20516;-62
2021/07/16 16:50:21;;;;;;;16.10;14.60;;;27.20;99.90;;;;;;5072409;28;20466;-62
2021/07/16 16:52:48;;;;;;;16.87;15.50;;;27.20;99.90;;;;;;5071506;28;20473;-62
2021/07/16 16:55:17;;;;;;;19.63;17.73;;;27.20;99.90;;;;;;5072121;28;20462;-62
2021/07/16 16:57:45;;;;;;;22.40;20.40;;;27.20;99.90;;;;;;5072894;28;21002;-62
2021/07/16 17:00:17;;;;;;;19.57;17.83;;;27.20;99.90;;;;;;5073108;28;20537;-62
2021/07/16 17:02:44;;;;;;;24.47;22.37;;;27.20;99.90;;;;;;5073309;28;20528;-62
2021/07/16 17:05:12;;;;;;;20.30;18.70;;;27.20;99.90;;;;;;5073211;28;20461;-62
2021/07/16 17:07:39;;;;;;;19.60;18.00;;;27.20;99.90;;;;;;5073314;28;20466;-62
2021/07/16 17:10:08;;;;;;;17.97;16.50;;;27.20;99.90;;;;;;5072910;28;20540;-62
2021/07/16 17:12:35;;;;;;;16.37;14.90;;;27.20;99.90;;;;;;5073339;28;20458;-62
2021/07/16 17:15:03;;;;;;;17.53;15.73;;;27.20;99.90;;;;;;5072774;28;20471;-62
2021/07/16 17:17:31;;;;;;;17.40;15.90;;;27.20;99.90;;;;;;5073083;28;20952;-63
2021/07/16 17:19:58;;;;;;;17.47;15.80;;;27.20;99.90;;;;;;5072794;28;20466;-62
2021/07/16 17:22:27;;;;;;;17.77;16.37;;;27.20;99.90;;;;;;5073155;28;20470;-62
2021/07/16 17:24:54;;;;;;;19.37;17.60;;;27.20;99.90;;;;;;5072715;28;20473;-62
2021/07/16 17:27:21;;;;;;;19.30;17.60;;;27.20;99.90;;;;;;5072832;28;20524;-62
2021/07/16 17:29:48;;;;;;;17.33;15.70;;;27.20;99.90;;;;;;5072991;28;20774;-62
2021/07/16 17:32:15;;;;;;;17.83;16.30;;;27.20;99.90;;;;;;5072267;28;20470;-62
2021/07/16 17:34:43;;;;;;;17.43;15.83;;;27.20;99.90;;;;;;5073025;28;21138;-62
2021/07/16 17:37:10;;;;;;;17.47;15.77;;;27.10;99.90;;;;;;5072280;28;20519;-62
2021/07/16 17:39:38;;;;;;;16.80;15.20;;;27.10;99.90;;;;;;5056726;28;20471;-62
2021/07/16 17:42:05;;;;;;;16.73;15.13;;;27.10;99.90;;;;;;5052500;28;20909;-61
2021/07/16 17:44:32;;;;;;;17.77;16.17;;;27.00;99.90;;;;;;5052550;28;20479;-62
2021/07/16 17:46:59;;;;;;;16.63;15.33;;;27.00;99.90;;;;;;5052201;28;20467;-61
2021/07/16 17:49:26;;;;;;;15.43;14.00;;;27.00;99.90;;;;;;5052789;28;20471;-62
2021/07/16 17:51:53;;;;;;;17.90;13.70;;;27.00;99.90;;;;;;5052293;28;20533;-62
2021/07/16 17:54:20;;;;;;;13.93;12.57;;;26.90;99.90;;;;;;5052027;28;20459;-62
2021/07/16 17:56:48;;;;;;;12.50;11.00;;;26.80;99.90;;;;;;5052316;28;20471;-62
2021/07/16 17:59:15;;;;;;;13.43;12.17;;;26.70;99.90;;;;;;5051613;28;20872;-62
2021/07/16 18:01:42;;;;;;;13.80;12.33;;;26.60;99.90;;;;;;5054880;28;20471;-62
2021/07/16 18:04:09;;;;;;;15.00;13.67;;;26.40;99.90;;;;;;5065959;28;20478;-62
2021/07/16 18:06:36;;;;;;;16.00;14.37;;;26.30;99.90;;;;;;5069155;28;20527;-62
2021/07/16 18:09:04;;;;;;;14.07;12.70;;;26.10;99.90;;;;;;5061123;28;20479;-62
2021/07/16 18:11:30;;;;;;;14.73;13.20;;;26.00;99.90;;;;;;5056526;28;20524;-61
2021/07/16 18:13:59;;;;;;;14.27;13.10;;;25.90;99.90;;;;;;5057817;28;20527;-61
2021/07/16 18:16:26;;;;;;;15.27;13.93;;;25.80;99.90;;;;;;5069311;28;20843;-62
2021/07/16 18:18:52;;;;;;;14.43;13.33;;;25.70;99.90;;;;;;5054432;28;20544;-63
2021/07/16 18:21:19;;;;;;;19.70;17.77;;;25.60;99.90;;;;;;5050542;28;20926;-63
2021/07/16 18:23:46;;;;;;;21.47;19.57;;;25.60;99.90;;;;;;5051625;28;20532;-63
2021/07/16 18:26:14;;;;;;;21.53;19.80;;;25.50;99.90;;;;;;5052504;28;20554;-62
2021/07/16 18:28:45;;;;;;;22.10;20.00;;;25.50;99.90;;;;;;5055817;28;21001;-62
2021/07/16 18:31:14;;;;;;;21.73;19.93;;;25.50;99.90;;;;;;5061627;28;20479;-61
2021/07/16 18:33:41;;;;;;;22.37;20.20;;;25.40;99.90;;;;;;5054249;28;20464;-61
2021/07/16 18:36:08;;;;;;;20.80;19.10;;;25.40;99.90;;;;;;5056097;28;20491;-61
2021/07/16 18:38:36;;;;;;;25.67;23.47;;;25.40;99.90;;;;;;5056245;28;20479;-63
2021/07/16 18:41:03;;;;;;;27.20;24.90;;;25.40;99.90;;;;;;5050044;28;20466;-61
2021/07/16 18:43:30;;;;;;;31.93;28.93;;;25.40;99.90;;;;;;5054262;28;20558;-63
2021/07/16 18:45:57;;;;;;;28.90;26.23;;;25.30;99.90;;;;;;5066518;28;20490;-61
2021/07/16 18:48:26;;;;;;;24.80;22.80;;;25.30;99.90;;;;;;5067185;28;21093;-60
2021/07/16 18:50:53;;;;;;;25.40;23.27;;;25.40;99.90;;;;;;5057505;28;20482;-61
2021/07/16 18:53:20;;;;;;;29.50;26.80;;;25.30;99.90;;;;;;5054995;28;20477;-61
2021/07/16 18:55:48;;;;;;;26.37;24.03;;;25.30;99.90;;;;;;5051887;28;20574;-61
2021/07/16 18:58:15;;;;;;;32.63;29.40;;;25.30;99.90;;;;;;5059951;28;20977;-61
2021/07/16 19:00:43;;;;;;;38.90;34.87;;;25.30;99.90;;;;;;5064436;28;20513;-62
2021/07/16 19:03:10;;;;;;;30.03;27.23;;;25.30;99.90;;;;;;5058244;28;20554;-61
2021/07/16 19:05:39;;;;;;;28.10;25.50;;;25.30;99.90;;;;;;5063619;28;20961;-61
2021/07/16 19:08:06;;;;;;;26.07;23.63;;;25.30;99.90;;;;;;5059487;28;20471;-61
2021/07/16 19:10:34;;;;;;;24.07;21.97;;;25.30;99.90;;;;;;5073522;28;20531;-61
2021/07/16 19:13:01;;;;;;;23.83;21.70;;;25.30;99.90;;;;;;5075270;28;20537;-61
2021/07/16 19:15:28;;;;;;;30.27;27.13;;;25.30;99.90;;;;;;5072613;28;20465;-61
2021/07/16 19:17:54;;;;;;;32.13;29.00;;;25.30;99.90;;;;;;5055246;28;20869;-61
2021/07/16 19:20:22;;;;;;;26.07;23.77;;;25.20;99.90;;;;;;5062633;28;20515;-62
2021/07/16 19:22:50;;;;;;;21.43;19.53;;;25.20;99.90;;;;;;5062581;28;20478;-61
2021/07/16 19:25:17;;;;;;;20.90;19.00;;;25.20;99.90;;;;;;5053722;28;20855;-62
2021/07/16 19:27:44;;;;;;;21.00;19.10;;;25.20;99.90;;;;;;5071447;28;20532;-62
2021/07/16 19:30:12;;;;;;;21.10;19.20;;;25.10;99.90;;;;;;5073857;28;20988;-63
2021/07/16 19:32:40;;;;;;;19.13;17.53;;;25.10;99.90;;;;;;5074226;28;20964;-62
2021/07/16 19:35:08;;;;;;;17.00;15.30;;;25.00;99.90;;;;;;5067032;28;20468;-62
2021/07/16 19:37:35;;;;;;;15.60;14.33;;;25.00;99.90;;;;;;5054670;28;20479;-62
2021/07/16 19:40:05;;;;;;;15.77;14.33;;;25.00;99.90;;;;;;5054670;28;20498;-61
2021/07/16 19:42:32;;;;;;;18.40;14.60;;;24.90;99.90;;;;;;5054987;28;20460;-61
2021/07/16 19:44:59;;;;;;;14.27;12.90;;;24.90;99.90;;;;;;5054965;28;20534;-61
2021/07/16 19:47:26;;;;;;;15.90;14.40;;;24.80;99.90;;;;;;5053972;28;20498;-61
2021/07/16 19:49:53;;;;;;;16.07;14.73;;;24.80;99.90;;;;;;5054467;28;20471;-61
2021/07/16 19:52:20;;;;;;;15.40;14.10;;;24.80;99.90;;;;;;5059594;28;20543;-61
2021/07/16 19:54:47;;;;;;;14.50;13.27;;;24.80;99.90;;;;;;5071400;28;20471;-62
2021/07/16 19:57:16;;;;;;;13.60;12.40;;;24.80;99.90;;;;;;5058069;28;20542;-61
2021/07/16 19:59:43;;;;;;;16.57;15.17;;;24.70;99.90;;;;;;5068569;28;20528;-62
2021/07/16 20:02:10;;;;;;;17.10;15.60;;;24.70;99.90;;;;;;5068653;28;21021;-61
2021/07/16 20:04:38;;;;;;;16.03;14.63;;;24.70;99.90;;;;;;5074278;28;20531;-61
2021/07/16 20:07:05;;;;;;;13.50;12.30;;;24.60;99.90;;;;;;5074044;28;20467;-60
2021/07/16 20:09:31;;;;;;;14.10;12.87;;;24.60;99.90;;;;;;5067953;28;20536;-61
2021/07/16 20:11:58;;;;;;;13.23;12.17;;;24.60;99.90;;;;;;5068783;28;20478;-61
2021/07/16 20:14:29;;;;;;;14.10;12.60;;;24.60;99.90;;;;;;5073551;28;20512;-60
2021/07/16 20:16:56;;;;;;;14.90;13.70;;;24.60;99.90;;;;;;5074202;28;20532;-62
2021/07/16 20:19:25;;;;;;;14.63;13.43;;;24.60;99.90;;;;;;5073638;28;20535;-61
2021/07/16 20:21:52;;;;;;;14.63;13.43;;;24.60;99.90;;;;;;5073880;28;20474;-63
2021/07/16 20:24:19;;;;;;;15.27;13.97;;;24.60;99.90;;;;;;5073304;28;20535;-61
2021/07/16 20:26:45;;;;;;;13.80;12.60;;;24.50;99.90;;;;;;5069611;28;20474;-62
2021/07/16 20:29:12;;;;;;;12.53;11.43;;;24.50;99.90;;;;;;5073230;28;20497;-62
2021/07/16 20:31:41;;;;;;;12.80;11.73;;;24.50;99.90;;;;;;5073649;28;20471;-61
2021/07/16 20:34:08;;;;;;;12.43;11.33;;;24.50;99.90;;;;;;5073800;28;20477;-62
2021/07/16 20:36:34;;;;;;;14.87;13.47;;;24.50;99.90;;;;;;5073114;28;20478;-61
2021/07/16 20:39:01;;;;;;;14.93;13.57;;;24.50;99.90;;;;;;5073574;28;21031;-61
2021/07/16 20:41:28;;;;;;;18.63;16.73;;;24.50;99.90;;;;;;5073081;28;20474;-61
2021/07/16 20:43:55;;;;;;;19.20;17.30;;;24.50;99.90;;;;;;5073545;28;20910;-62
2021/07/16 20:46:22;;;;;;;16.10;14.77;;;24.50;99.90;;;;;;5072813;28;20474;-61
2021/07/16 20:48:50;;;;;;;17.03;15.67;;;24.50;99.90;;;;;;5073363;28;20855;-62
2021/07/16 20:51:17;;;;;;;14.53;13.23;;;24.50;99.90;;;;;;5072840;28;20471;-62
2021/07/16 20:53:44;;;;;;;14.33;13.17;;;24.50;99.90;;;;;;5068882;28;20466;-61
2021/07/16 20:56:12;;;;;;;14.30;12.90;;;24.50;99.90;;;;;;5072216;28;21187;-62
2021/07/16 20:58:39;;;;;;;15.63;14.23;;;24.50;99.90;;;;;;5068899;28;21355;-61
2021/07/16 21:01:06;;;;;;;14.37;13.17;;;24.50;99.90;;;;;;5068196;28;20470;-60
2021/07/16 21:03:33;;;;;;;16.13;14.73;;;24.50;99.90;;;;;;5068082;28;20550;-60
2021/07/16 21:06:01;;;;;;;13.77;12.50;;;24.50;99.90;;;;;;5060820;28;20531;-61
2021/07/16 21:08:29;;;;;;;14.53;13.43;;;24.50;99.90;;;;;;5072775;28;20980;-61
2021/07/16 21:10:58;;;;;;;16.27;14.73;;;24.50;99.90;;;;;;5072852;28;20471;-61
2021/07/16 21:13:26;;;;;;;18.80;17.20;;;24.50;99.90;;;;;;5072536;28;20463;-61
2021/07/16 21:15:53;;;;;;;16.70;15.37;;;24.50;99.90;;;;;;5072561;28;20469;-61
2021/07/16 21:18:20;;;;;;;17.07;15.50;;;24.40;99.90;;;;;;5072237;28;20484;-63
2021/07/16 21:20:47;;;;;;;16.87;15.27;;;24.40;99.90;;;;;;5055090;28;20467;-62
2021/07/16 21:23:16;;;;;;;20.67;18.63;;;24.40;99.90;;;;;;5065560;28;20481;-62
2021/07/16 21:25:43;;;;;;;16.67;14.93;;;24.40;99.90;;;;;;5058935;28;20450;-62
2021/07/16 21:28:10;;;;;;;15.97;14.47;;;24.40;99.90;;;;;;5069596;28;20471;-62
2021/07/16 21:30:36;;;;;;;14.47;13.27;;;24.40;99.90;;;;;;5059452;28;20535;-62
2021/07/16 21:33:08;;;;;;;15.47;14.00;;;24.30;99.90;;;;;;5066501;28;20531;-62
2021/07/16 21:35:35;;;;;;;15.70;13.90;;;24.40;99.90;;;;;;5072035;28;20531;-62
2021/07/16 21:38:02;;;;;;;17.10;15.33;;;24.30;99.90;;;;;;5072406;28;20874;-62
2021/07/16 21:40:31;;;;;;;16.30;14.90;;;24.30;99.90;;;;;;5072029;28;20523;-61
2021/07/16 21:42:57;;;;;;;14.20;12.70;;;24.30;99.90;;;;;;5072214;28;20520;-60
2021/07/16 21:45:24;;;;;;;15.43;13.93;;;24.30;99.90;;;;;;5062328;28;20466;-60
2021/07/16 21:47:52;;;;;;;20.80;19.00;;;24.30;99.90;;;;;;5067629;28;20963;-61
2021/07/16 21:50:19;;;;;;;18.77;17.00;;;24.30;99.90;;;;;;5053256;28;20486;-60
2021/07/16 21:52:46;;;;;;;17.20;15.67;;;24.30;99.90;;;;;;5067518;28;20493;-61
2021/07/16 21:55:13;;;;;;;17.83;16.10;;;24.30;99.90;;;;;;5055484;28;20508;-61
2021/07/16 21:57:41;;;;;;;15.00;13.77;;;24.30;99.90;;;;;;5061000;28;20483;-62
2021/07/16 22:00:13;;;;;;;23.17;21.07;;;24.30;99.90;;;;;;5059950;28;20459;-61
2021/07/16 22:02:41;;;;;;;19.20;17.23;;;24.30;99.90;;;;;;5067997;28;21001;-61
2021/07/16 22:05:09;;;;;;;21.50;19.53;;;24.30;99.90;;;;;;5072251;28;20459;-61
2021/07/16 22:07:36;;;;;;;21.73;19.77;;;24.30;99.90;;;;;;5067414;28;20475;-61
2021/07/16 22:10:04;;;;;;;20.33;18.30;;;24.30;99.90;;;;;;5060813;28;20492;-61
2021/07/16 22:12:30;;;;;;;16.67;15.37;;;24.30;99.90;;;;;;5071680;28;20470;-61
2021/07/16 22:14:59;;;;;;;18.30;16.70;;;24.30;99.90;;;;;;5071930;28;21017;-61
2021/07/16 22:17:26;;;;;;;17.63;16.03;;;24.30;99.90;;;;;;5066225;28;20482;-61
2021/07/16 22:19:54;;;;;;;18.20;16.30;;;24.30;99.90;;;;;;5058422;28;20860;-62
2021/07/16 22:22:20;;;;;;;19.47;17.57;;;24.30;99.90;;;;;;5072085;28;20466;-61
2021/07/16 22:24:48;;;;;;;17.47;16.07;;;24.30;99.90;;;;;;5062509;28;20943;-61